ADDS METAR Data INFO
IDs: Format: Raw Decoded Include TAF

Data at: 0903 UTC 20 Oct 2017

KCIC 200855Z AUTO 24006KT 10SM FEW095 FEW120 11/09 A2983 RMK AO1
KCIC 200835Z AUTO 00000KT 10SM FEW050 SCT075 BKN090 12/07 A2981 RMK AO1
KCIC 200815Z AUTO 00000KT 10SM FEW060 BKN075 OVC090 12/08 A2981 RMK AO1
KCIC 200755Z AUTO 04004KT 10SM FEW024 SCT038 BKN060 12/08 A2979 RMK AO1 P0007
KCIC 200735Z AUTO 01012KT 10SM SCT024 BKN031 OVC050 11/09 A2980 RMK AO1 P0007
KCIC 200715Z AUTO 32015KT 5SM SCT023 BKN028 OVC070 12/11 A2980 RMK AO1 P0005
KCIC 200655Z AUTO 24010KT 10SM SCT002 BKN024 OVC070 12/12 A2980 RMK AO1 P0024
KCIC 200635Z AUTO 26004KT 1 3/4SM SCT003 BKN014 OVC020 14/14 A2977 RMK AO1 P0017
KCIC 200615Z AUTO 00000KT 10SM FEW020 FEW030 OVC038 15/13 A2973 RMK AO1
KCIC 200555Z AUTO 14019G25KT 8SM FEW032 OVC042 15/13 A2973 RMK AO1 P0001
KCIC 200535Z AUTO 14020G29KT 10SM FEW003 OVC044 15/13 A2972 RMK AO1
KCIC 200515Z AUTO 13023G29KT 10SM FEW002 SCT017 BKN050 15/12 A2972 RMK AO1
KCIC 200455Z AUTO 13026G29KT 10SM FEW002 SCT046 BKN080 16/12 A2972 RMK AO1
KCIC 200435Z AUTO 13025G33KT 10SM FEW002 FEW046 OVC090 17/11 A2972 RMK AO1
KCIC 200415Z AUTO 13022G27KT 10SM FEW002 BKN070 OVC090 17/11 A2974 RMK AO1
KCIC 200355Z AUTO 13021G26KT 10SM OVC070 17/10 A2974 RMK AO1
KCIC 200335Z AUTO 14021G26KT 10SM OVC070 18/10 A2975 RMK AO1
KCIC 200315Z AUTO 14020G27KT 10SM OVC070 18/11 A2976 RMK AO1
KCIC 200255Z AUTO 14019G25KT 10SM OVC070 18/11 A2976 RMK AO1
KCIC 200235Z AUTO 14019G24KT 10SM BKN070 19/11 A2976 RMK AO1
KCIC 200215Z AUTO 14016G24KT 10SM SCT070 19/10 A2976 RMK AO1
KCIC 200155Z AUTO 15016KT 10SM SCT070 19/10 A2976 RMK AO1
KCIC 200147Z 15015G22KT 10SM SCT070 20/10 A2976 RMK LAST
KCIC 200135Z AUTO 14018G23KT 10SM CLR 20/10 A2975 RMK AO1
KCIC 200115Z AUTO 14014G24KT 10SM FEW070 20/10 A2976 RMK AO1
KCIC 200055Z AUTO 13021G24KT 10SM BKN070 21/11 A2975 RMK AO1
KCIC 200050Z 13018KT 10SM BKN070 21/11 A2976 RMK FU ALQDS
KCIC 200035Z AUTO 14018G22KT 10SM SCT070 21/11 A2977 RMK AO1
KCIC 200015Z AUTO 14015KT 10SM FEW070 21/11 A2978 RMK AO1
KCIC 192355Z AUTO 14017G24KT 10SM FEW070 22/10 A2978 RMK AO1
KCIC 192350Z 14019G25KT 10SM BKN060 22/10 A2978 RMK FU ALQDS
KCIC 192249Z 13010G20KT 10SM OVC060 20/10 A2981 RMK FU ALL QUADS
KCIC 192148Z 13014G20KT 10SM OVC060 20/09 A2984
KCIC 192053Z 15014G20KT 25SM OVC060 20/09 A2986
KCIC 191948Z 14010G20KT 10SM BKN070 19/08 A2990
KCIC 191850Z COR 13013KT 25SM BKN060 17/07 A2992
KCIC 191747Z 13015KT 25SM BKN070 BKN090 16/08 A2993
KCIC 191649Z 16010KT 25SM BKN080 15/07 A2993
KCIC 191547Z 15014KT 25SM BKN090 13/06 A2993
KCIC 191455Z 13012KT 10SM BKN090 12/07 A2991 RMK HZ
KCIC 191355Z 13012KT 10SM SCT100 12/04 A2991 RMK HZ
KCIC 191235Z AUTO 14009KT 10SM CLR 12/04 A2990 RMK AO1
KCIC 191215Z AUTO 15007KT 10SM FEW041 12/04 A2991 RMK AO1
KCIC 191155Z AUTO 15006KT 10SM FEW033 SCT041 12/04 A2990 RMK AO1
KCIC 191135Z AUTO 14007KT 10SM SCT033 12/04 A2990 RMK AO1
KCIC 191115Z AUTO 14007KT 10SM CLR 12/04 A2989 RMK AO1
KCIC 191055Z AUTO 16006KT 10SM CLR 12/04 A2990 RMK AO1
KCIC 191035Z AUTO 14006KT 10SM CLR 13/03 A2990 RMK AO1
KCIC 191015Z AUTO 12008KT 10SM SCT033 13/02 A2990 RMK AO1
KCIC 190955Z AUTO 10006KT 10SM BKN033 13/03 A2991 RMK AO1
KCIC 190935Z AUTO 15003KT 10SM FEW035 14/02 A2991 RMK AO1
KCIC 190915Z AUTO 00000KT 10SM FEW035 14/00 A2991 RMK AO1
KCIC 190855Z AUTO 00000KT 10SM BKN035 BKN060 14/00 A2991 RMK AO1
KCIC 190835Z AUTO 00000KT 10SM BKN060 14/00 A2991 RMK AO1
KCIC 190815Z AUTO 00000KT 10SM OVC070 13/00 A2991 RMK AO1
KCIC 190755Z AUTO 00000KT 10SM OVC070 14/00 A2990 RMK AO1
KCIC 190735Z AUTO 00000KT 10SM SCT035 OVC070 16/M02 A2990 RMK AO1
KCIC 190715Z AUTO 12003KT 10SM BKN035 BKN070 16/M02 A2990 RMK AO1
KCIC 190655Z AUTO 00000KT 10SM BKN037 BKN070 18/M02 A2990 RMK AO1
KCIC 190635Z AUTO 11007KT 10SM FEW031 OVC037 18/M02 A2990 RMK AO1
KCIC 190615Z AUTO 00000KT 10SM OVC031 17/00 A2991 RMK AO1
KCIC 190555Z AUTO 00000KT 10SM OVC035 17/00 A2991 RMK AO1
KCIC 190535Z AUTO 00000KT 10SM OVC035 18/00 A2991 RMK AO1
KCIC 190515Z AUTO 00000KT 10SM OVC033 19/00 A2991 RMK AO1
KCIC 190455Z AUTO 11006KT 10SM SCT037 BKN044 20/00 A2990 RMK AO1
KCIC 190435Z AUTO 11005KT 10SM CLR 20/00 A2990 RMK AO1
KCIC 190415Z AUTO 00000KT 10SM FEW018 SCT044 21/00 A2990 RMK AO1
KCIC 190355Z AUTO 10006KT 10SM SCT018 BKN044 21/00 A2990 RMK AO1
KCIC 190335Z AUTO 00000KT 10SM BKN042 19/00 A2991 RMK AO1
KCIC 190315Z AUTO 00000KT 10SM OVC040 20/00 A2991 RMK AO1
KCIC 190255Z AUTO 00000KT 10SM OVC040 21/00 A2991 RMK AO1
KCIC 190235Z AUTO 11005KT 10SM SCT042 BKN050 22/00 A2991 RMK AO1
KCIC 190215Z AUTO 00000KT 10SM FEW047 FEW055 22/00 A2991 RMK AO1
KCIC 190158Z 00000KT 10SM SKC 22/00 A2991 RMK HZ. LAST
KCIC 190155Z AUTO 00000KT 10SM FEW047 23/00 A2991 RMK AO1
KCIC 190135Z AUTO 00000KT 10SM CLR 23/01 A2991 RMK AO1
KCIC 190115Z AUTO 00000KT 10SM CLR 24/01 A2991 RMK AO1
KCIC 190055Z AUTO 16003KT 10SM CLR 25/01 A2991 RMK AO1
KCIC 190052Z 16005KT 10SM SKC 25/01 A2991 RMK HZ
KCIC 190035Z AUTO 18004KT 10SM CLR 25/00 A2992 RMK AO1
KCIC 190015Z AUTO 00000KT 10SM CLR 26/00 A2992 RMK AO1
KCIC 182357Z 18006KT 10SM SKC 26/00 A2993 RMK HZ
KCIC 182355Z AUTO 00000KT 10SM CLR 26/00 A2993 RMK AO1
KCIC 182147Z 18008KT 10SM SKC 25/00 A2996 RMK HZ ALL QUADS